Time,TemperatureF,DewpointF,PressureIn,WindDirection,WindDirectionDegrees,WindSpeedMPH,WindSpeedGustMPH,Humidity,HourlyPrecipIn,Conditions,Clouds,dailyrainin,SoftwareType,DateUTC
2013-03-09 00:01:00,21.1,18.5,30.43,NE,34,0.0,0.0,89,0.00,,SKC,0.00,VWS V14.00,2013-03-09 05:01:00,
2013-03-09 00:06:00,21.0,18.4,30.43,NE,34,0.0,0.0,90,0.00,,SKC,0.00,VWS V14.00,2013-03-09 05:06:00,
2013-03-09 00:11:00,21.1,18.6,30.42,NE,34,0.0,0.0,90,0.00,,SKC,0.00,VWS V14.00,2013-03-09 05:11:00,
2013-03-09 00:16:00,20.9,18.4,30.43,NE,34,0.0,0.0,90,0.00,,SKC,0.00,VWS V14.00,2013-03-09 05:16:00,
2013-03-09 00:21:00,20.5,18.0,30.43,NE,34,0.0,0.0,90,0.00,,SKC,0.00,VWS V14.00,2013-03-09 05:21:00,
2013-03-09 00:26:00,20.6,18.1,30.43,NE,34,0.0,0.0,90,0.00,,SKC,0.00,VWS V14.00,2013-03-09 05:26:00,
2013-03-09 00:30:00,20.6,18.1,30.43,NE,34,0.0,0.0,90,0.00,,SKC,0.00,VWS V14.00,2013-03-09 05:30:00,
2013-03-09 00:31:00,20.4,18.0,30.43,NE,34,0.0,0.0,90,0.00,,SKC,0.00,VWS V14.00,2013-03-09 05:31:00,
2013-03-09 00:36:00,20.4,18.1,30.43,NE,34,0.0,0.0,90,0.00,,SKC,0.00,VWS V14.00,2013-03-09 05:36:00,
2013-03-09 00:41:00,20.4,18.1,30.43,NE,34,0.0,0.0,90,0.00,,SKC,0.00,VWS V14.00,2013-03-09 05:41:00,
2013-03-09 00:46:00,20.1,17.8,30.43,NE,34,0.0,0.0,90,0.00,,SKC,0.00,VWS V14.00,2013-03-09 05:46:00,
2013-03-09 00:51:00,19.9,17.6,30.43,NE,34,0.0,0.0,91,0.00,,SKC,0.00,VWS V14.00,2013-03-09 05:51:00,
2013-03-09 00:56:00,19.9,17.6,30.43,NE,34,0.0,0.0,91,0.00,,SKC,0.00,VWS V14.00,2013-03-09 05:56:00,
2013-03-09 01:00:00,19.9,17.6,30.43,NE,34,0.0,0.0,91,0.00,,SKC,0.00,VWS V14.00,2013-03-09 06:00:00,
2013-03-09 01:01:00,19.7,17.5,30.43,NE,34,0.0,0.0,91,0.00,,SKC,0.00,VWS V14.00,2013-03-09 06:01:00,
2013-03-09 01:06:00,19.6,17.4,30.43,NE,34,0.0,0.0,91,0.00,,SKC,0.00,VWS V14.00,2013-03-09 06:06:00,
2013-03-09 01:11:00,19.7,17.5,30.43,NE,34,0.0,0.0,91,0.00,,SKC,0.00,VWS V14.00,2013-03-09 06:11:00,
2013-03-09 01:16:00,19.6,17.5,30.43,NE,34,0.0,0.0,92,0.00,,SKC,0.00,VWS V14.00,2013-03-09 06:16:00,
2013-03-09 01:21:00,19.8,17.7,30.43,NE,34,0.0,0.0,91,0.00,,SKC,0.00,VWS V14.00,2013-03-09 06:21:00,
2013-03-09 01:26:00,19.8,17.7,30.43,NE,34,0.0,0.0,91,0.00,,SKC,0.00,VWS V14.00,2013-03-09 06:26:00,
2013-03-09 01:30:00,19.8,17.7,30.43,NE,34,0.0,0.0,91,0.00,,SKC,0.00,VWS V14.00,2013-03-09 06:30:00,
2013-03-09 01:31:00,19.7,17.6,30.43,NE,34,0.0,0.0,92,0.00,,SKC,0.00,VWS V14.00,2013-03-09 06:31:00,
2013-03-09 01:36:00,19.9,18.0,30.43,NE,34,0.0,0.0,92,0.00,,SKC,0.00,VWS V14.00,2013-03-09 06:36:00,
2013-03-09 01:41:00,20.2,18.3,30.43,NE,34,0.0,0.0,92,0.00,,SKC,0.00,VWS V14.00,2013-03-09 06:41:00,
2013-03-09 01:46:00,19.9,17.9,30.43,NE,34,0.0,0.0,92,0.00,,SKC,0.00,VWS V14.00,2013-03-09 06:46:00,
2013-03-09 01:51:00,19.9,17.9,30.43,NE,34,0.0,0.0,92,0.00,,SKC,0.00,VWS V14.00,2013-03-09 06:51:00,
2013-03-09 01:56:00,19.6,17.6,30.43,NE,34,0.0,0.0,92,0.00,,SKC,0.00,VWS V14.00,2013-03-09 06:56:00,
2013-03-09 02:00:00,19.6,17.6,30.43,NE,34,0.0,0.0,92,0.00,,SKC,0.00,VWS V14.00,2013-03-09 07:00:00,
2013-03-09 02:01:00,19.3,17.3,30.43,NE,34,0.0,0.0,92,0.00,,SKC,0.00,VWS V14.00,2013-03-09 07:01:00,
2013-03-09 02:06:00,19.2,17.2,30.43,NE,34,0.0,0.0,92,0.00,,SKC,0.00,VWS V14.00,2013-03-09 07:06:00,
2013-03-09 02:11:00,19.1,17.2,30.43,NE,34,0.0,0.0,92,0.00,,SKC,0.00,VWS V14.00,2013-03-09 07:11:00,
2013-03-09 02:16:00,19.0,17.1,30.43,NE,34,0.0,0.0,92,0.00,,SKC,0.00,VWS V14.00,2013-03-09 07:16:00,
2013-03-09 02:21:00,19.0,17.1,30.43,NE,34,0.0,0.0,92,0.00,,SKC,0.00,VWS V14.00,2013-03-09 07:21:00,
2013-03-09 02:26:00,18.9,17.0,30.43,NE,34,0.0,0.0,92,0.00,,SKC,0.00,VWS V14.00,2013-03-09 07:26:00,
2013-03-09 02:30:00,18.9,17.0,30.43,NE,34,0.0,0.0,92,0.00,,SKC,0.00,VWS V14.00,2013-03-09 07:30:00,
2013-03-09 02:31:00,18.7,16.8,30.43,NE,34,0.0,0.0,92,0.00,,SKC,0.00,VWS V14.00,2013-03-09 07:31:00,
2013-03-09 02:36:00,18.5,16.6,30.43,NE,34,0.0,0.0,92,0.00,,SKC,0.00,VWS V14.00,2013-03-09 07:36:00,
2013-03-09 02:41:00,18.2,16.3,30.43,NE,34,0.0,0.0,92,0.00,,SKC,0.00,VWS V14.00,2013-03-09 07:41:00,
2013-03-09 02:46:00,18.0,16.1,30.42,NE,34,0.0,0.0,92,0.00,,SKC,0.00,VWS V14.00,2013-03-09 07:46:00,
2013-03-09 02:51:00,18.0,16.1,30.42,NE,34,0.0,0.0,92,0.00,,SKC,0.00,VWS V14.00,2013-03-09 07:51:00,
2013-03-09 02:56:00,17.8,15.9,30.42,NE,34,0.0,0.0,92,0.00,,SKC,0.00,VWS V14.00,2013-03-09 07:56:00,
2013-03-09 03:00:00,17.7,15.8,30.42,NE,34,0.0,0.0,92,0.00,,SKC,0.00,VWS V14.00,2013-03-09 08:00:00,
2013-03-09 03:01:00,17.5,15.6,30.42,NE,34,0.0,0.0,92,0.00,,SKC,0.00,VWS V14.00,2013-03-09 08:01:00,
2013-03-09 03:06:00,17.7,16.0,30.42,NE,34,0.0,0.0,93,0.00,,SKC,0.00,VWS V14.00,2013-03-09 08:06:00,
2013-03-09 03:11:00,18.1,16.4,30.42,NE,34,0.0,0.0,93,0.00,,SKC,0.00,VWS V14.00,2013-03-09 08:11:00,
2013-03-09 03:16:00,18.3,16.5,30.41,NE,34,0.0,0.0,92,0.00,,SKC,0.00,VWS V14.00,2013-03-09 08:16:00,
2013-03-09 03:21:00,18.1,16.3,30.41,NE,34,0.0,0.0,93,0.00,,SKC,0.00,VWS V14.00,2013-03-09 08:21:00,
2013-03-09 03:26:00,18.1,16.4,30.41,NE,34,0.0,0.0,93,0.00,,SKC,0.00,VWS V14.00,2013-03-09 08:26:00,
2013-03-09 03:30:00,18.2,16.5,30.42,NE,34,0.0,0.0,93,0.00,,SKC,0.00,VWS V14.00,2013-03-09 08:30:00,
2013-03-09 03:31:00,18.4,16.7,30.41,NE,34,0.0,0.0,93,0.00,,SKC,0.00,VWS V14.00,2013-03-09 08:31:00,
2013-03-09 03:36:00,18.7,17.0,30.41,NE,34,0.0,0.0,93,0.00,,SKC,0.00,VWS V14.00,2013-03-09 08:36:00,
2013-03-09 03:41:00,19.0,17.3,30.41,NE,34,0.0,0.0,93,0.00,,SKC,0.00,VWS V14.00,2013-03-09 08:41:00,
2013-03-09 03:46:00,18.8,17.0,30.41,NE,34,0.0,0.0,93,0.00,,SKC,0.00,VWS V14.00,2013-03-09 08:46:00,
2013-03-09 03:51:00,18.4,16.6,30.42,NE,34,0.0,0.0,92,0.00,,SKC,0.00,VWS V14.00,2013-03-09 08:51:00,
2013-03-09 03:56:00,18.0,16.1,30.42,NE,34,0.0,0.0,92,0.00,,SKC,0.00,VWS V14.00,2013-03-09 08:56:00,
2013-03-09 04:00:00,18.2,16.4,30.42,NE,34,0.0,0.0,92,0.00,,SKC,0.00,VWS V14.00,2013-03-09 09:00:00,
2013-03-09 04:01:00,17.5,15.7,30.42,NE,34,0.0,0.0,92,0.00,,SKC,0.00,VWS V14.00,2013-03-09 09:01:00,
2013-03-09 04:06:00,17.3,15.6,30.43,NE,34,0.0,0.0,93,0.00,,SKC,0.00,VWS V14.00,2013-03-09 09:06:00,
2013-03-09 04:11:00,17.4,15.7,30.43,NE,34,0.0,0.0,93,0.00,,SKC,0.00,VWS V14.00,2013-03-09 09:11:00,
2013-03-09 04:16:00,17.2,15.5,30.43,NE,34,0.0,0.0,93,0.00,,SKC,0.00,VWS V14.00,2013-03-09 09:16:00,
2013-03-09 04:21:00,17.4,15.7,30.43,NE,34,0.0,0.0,93,0.00,,SKC,0.00,VWS V14.00,2013-03-09 09:21:00,
2013-03-09 04:26:00,17.2,15.5,30.44,NE,34,0.0,0.0,93,0.00,,SKC,0.00,VWS V14.00,2013-03-09 09:26:00,
2013-03-09 04:30:00,17.3,15.6,30.43,NE,34,0.0,0.0,93,0.00,,SKC,0.00,VWS V14.00,2013-03-09 09:30:00,
2013-03-09 04:31:00,17.0,15.3,30.44,NE,34,0.0,0.0,93,0.00,,SKC,0.00,VWS V14.00,2013-03-09 09:31:00,
2013-03-09 04:36:00,16.9,15.1,30.44,NE,34,0.0,0.0,93,0.00,,SKC,0.00,VWS V14.00,2013-03-09 09:36:00,
2013-03-09 04:41:00,16.7,15.0,30.44,NE,34,0.0,0.0,93,0.00,,SKC,0.00,VWS V14.00,2013-03-09 09:41:00,
2013-03-09 04:46:00,16.7,15.0,30.44,NE,34,0.0,0.0,93,0.00,,SKC,0.00,VWS V14.00,2013-03-09 09:46:00,
2013-03-09 04:51:00,16.8,15.1,30.44,NE,34,0.0,0.0,93,0.00,,SKC,0.00,VWS V14.00,2013-03-09 09:51:00,
2013-03-09 04:56:00,16.6,14.9,30.44,NE,34,0.0,0.0,93,0.00,,SKC,0.00,VWS V14.00,2013-03-09 09:56:00,
2013-03-09 05:00:00,16.7,15.0,30.44,NE,34,0.0,0.0,93,0.00,,SKC,0.00,VWS V14.00,2013-03-09 10:00:00,
2013-03-09 05:01:00,16.5,14.8,30.44,NE,34,0.0,0.0,93,0.00,,SKC,0.00,VWS V14.00,2013-03-09 10:01:00,
2013-03-09 05:06:00,16.3,14.6,30.44,NE,34,0.0,0.0,93,0.00,,SKC,0.00,VWS V14.00,2013-03-09 10:06:00,
2013-03-09 05:11:00,16.2,14.5,30.44,NE,34,0.0,0.0,93,0.00,,SKC,0.00,VWS V14.00,2013-03-09 10:11:00,
2013-03-09 05:16:00,16.2,14.5,30.44,NE,34,0.0,0.0,93,0.00,,SKC,0.00,VWS V14.00,2013-03-09 10:16:00,
2013-03-09 05:21:00,16.2,14.6,30.44,NE,34,0.0,0.0,93,0.00,,SKC,0.00,VWS V14.00,2013-03-09 10:21:00,
2013-03-09 05:26:00,16.1,14.5,30.44,NE,34,0.0,0.0,93,0.00,,SKC,0.00,VWS V14.00,2013-03-09 10:26:00,
2013-03-09 05:30:00,16.3,14.6,30.44,NE,34,0.0,0.0,93,0.00,,SKC,0.00,VWS V14.00,2013-03-09 10:30:00,
2013-03-09 05:31:00,16.4,14.8,30.44,NE,34,0.0,0.0,93,0.00,,SKC,0.00,VWS V14.00,2013-03-09 10:31:00,
2013-03-09 05:36:00,16.5,14.9,30.44,NE,34,0.0,0.0,93,0.00,,SKC,0.00,VWS V14.00,2013-03-09 10:36:00,
2013-03-09 05:41:00,16.0,14.2,30.45,NE,34,0.0,0.0,92,0.00,,SKC,0.00,VWS V14.00,2013-03-09 10:41:00,
2013-03-09 05:46:00,15.5,13.9,30.45,NE,34,0.0,0.0,93,0.00,,SKC,0.00,VWS V14.00,2013-03-09 10:46:00,
2013-03-09 05:51:00,15.4,13.8,30.45,NE,34,0.0,0.0,93,0.00,,SKC,0.00,VWS V14.00,2013-03-09 10:51:00,
2013-03-09 05:56:00,15.6,14.0,30.46,NE,34,0.0,0.0,93,0.00,,SKC,0.00,VWS V14.00,2013-03-09 10:56:00,
2013-03-09 06:00:00,15.4,13.8,30.45,NE,34,0.0,0.0,93,0.00,,SKC,0.00,VWS V14.00,2013-03-09 11:00:00,
2013-03-09 06:01:00,15.5,13.9,30.46,NE,34,0.0,0.0,93,0.00,,SKC,0.00,VWS V14.00,2013-03-09 11:01:00,
2013-03-09 06:06:00,15.5,13.9,30.46,NE,34,0.0,0.0,93,0.00,,SKC,0.00,VWS V14.00,2013-03-09 11:06:00,
2013-03-09 06:11:00,15.3,13.7,30.46,NE,34,0.0,0.0,93,0.00,,SKC,0.00,VWS V14.00,2013-03-09 11:11:00,
2013-03-09 06:16:00,15.5,13.9,30.45,NE,34,0.0,0.0,93,0.00,,SKC,0.00,VWS V14.00,2013-03-09 11:16:00,
2013-03-09 06:22:00,15.4,13.8,30.45,NE,34,0.0,0.0,93,0.00,,SKC,0.00,VWS V14.00,2013-03-09 11:22:00,
2013-03-09 06:27:00,15.5,13.8,30.45,NE,34,0.0,0.0,93,0.00,,SKC,0.00,VWS V14.00,2013-03-09 11:27:00,
2013-03-09 06:30:00,15.4,13.8,30.45,NE,34,0.0,0.0,93,0.00,,SKC,0.00,VWS V14.00,2013-03-09 11:30:00,
2013-03-09 06:32:00,15.4,13.7,30.46,NE,34,0.0,0.0,93,0.00,,SKC,0.00,VWS V14.00,2013-03-09 11:32:00,
2013-03-09 06:37:00,15.2,13.5,30.45,NE,34,0.0,0.0,93,0.00,,SKC,0.00,VWS V14.00,2013-03-09 11:37:00,
2013-03-09 06:42:00,15.0,13.4,30.45,NE,34,0.0,0.0,93,0.00,,SKC,0.00,VWS V14.00,2013-03-09 11:42:00,
2013-03-09 06:47:00,15.1,13.5,30.45,NE,34,0.0,0.0,93,0.00,,SKC,0.00,VWS V14.00,2013-03-09 11:47:00,
2013-03-09 06:52:00,15.2,13.6,30.45,NE,34,0.0,0.0,93,0.00,,SKC,0.00,VWS V14.00,2013-03-09 11:52:00,
2013-03-09 06:57:00,15.3,13.7,30.45,NE,34,0.0,0.0,93,0.00,,SKC,0.00,VWS V14.00,2013-03-09 11:57:00,
2013-03-09 07:00:00,15.4,13.8,30.45,NE,34,0.0,0.0,93,0.00,,SKC,0.00,VWS V14.00,2013-03-09 12:00:00,
2013-03-09 07:02:00,15.6,14.0,30.45,NE,34,0.0,0.0,93,0.00,,SKC,0.00,VWS V14.00,2013-03-09 12:02:00,
2013-03-09 07:07:00,15.6,14.0,30.45,NE,34,0.0,0.0,93,0.00,,SKC,0.00,VWS V14.00,2013-03-09 12:07:00,
2013-03-09 07:12:00,15.9,14.4,30.45,NE,34,0.0,0.0,94,0.00,,SKC,0.00,VWS V14.00,2013-03-09 12:12:00,
2013-03-09 07:17:00,16.9,15.4,30.45,NE,34,0.0,0.0,94,0.00,,SKC,0.00,VWS V14.00,2013-03-09 12:17:00,
2013-03-09 07:22:00,18.7,17.5,30.45,NE,34,0.0,0.0,95,0.00,,SKC,0.00,VWS V14.00,2013-03-09 12:22:00,
2013-03-09 07:27:00,20.3,19.1,30.45,NE,34,0.0,0.0,95,0.00,,SKC,0.00,VWS V14.00,2013-03-09 12:27:00,
2013-03-09 07:30:00,19.8,18.6,30.45,NE,34,0.0,0.0,95,0.00,,SKC,0.00,VWS V14.00,2013-03-09 12:30:00,
2013-03-09 07:32:00,21.2,19.7,30.45,NE,34,0.0,0.0,94,0.00,,SKC,0.00,VWS V14.00,2013-03-09 12:32:00,
2013-03-09 07:37:00,21.6,20.1,30.45,NE,34,0.0,0.0,94,0.00,,SKC,0.00,VWS V14.00,2013-03-09 12:37:00,
2013-03-09 07:42:00,21.8,20.2,30.45,NE,34,0.0,0.0,93,0.00,,SKC,0.00,VWS V14.00,2013-03-09 12:42:00,
2013-03-09 07:47:00,22.0,20.5,30.45,NE,34,0.0,0.0,94,0.00,,SKC,0.00,VWS V14.00,2013-03-09 12:47:00,
2013-03-09 07:52:00,22.8,21.4,30.45,NE,34,0.0,0.0,94,0.00,,SKC,0.00,VWS V14.00,2013-03-09 12:52:00,
2013-03-09 07:57:00,23.5,22.0,30.45,NE,34,0.0,0.0,94,0.00,,SKC,0.00,VWS V14.00,2013-03-09 12:57:00,
2013-03-09 08:00:00,23.4,21.9,30.45,NE,34,0.0,0.0,94,0.00,,SKC,0.00,VWS V14.00,2013-03-09 13:00:00,
2013-03-09 08:02:00,23.9,22.2,30.46,NE,34,0.0,0.0,93,0.00,,SKC,0.00,VWS V14.00,2013-03-09 13:02:00,
2013-03-09 08:07:00,24.2,22.3,30.46,South,177,2.2,3.5,92,0.00,,SKC,0.00,VWS V14.00,2013-03-09 13:07:00,
2013-03-09 08:12:00,24.8,22.5,30.46,SSE,167,0.0,3.5,91,0.00,,SKC,0.00,VWS V14.00,2013-03-09 13:12:00,
2013-03-09 08:17:00,25.2,22.6,30.46,SSE,167,0.0,3.5,90,0.00,,SKC,0.00,VWS V14.00,2013-03-09 13:17:00,
2013-03-09 08:22:00,25.5,22.1,30.46,South,191,2.2,4.7,87,0.00,,SKC,0.00,VWS V14.00,2013-03-09 13:22:00,
2013-03-09 08:27:00,26.2,22.5,30.46,South,177,0.0,2.5,86,0.00,,SKC,0.00,VWS V14.00,2013-03-09 13:27:00,
2013-03-09 08:30:00,25.9,22.2,30.46,SW,225,2.2,4.7,86,0.00,,SKC,0.00,VWS V14.00,2013-03-09 13:30:00,
2013-03-09 08:32:00,26.7,22.5,30.46,SE,136,0.6,4.6,84,0.00,,SKC,0.00,VWS V14.00,2013-03-09 13:32:00,
2013-03-09 08:37:00,27.2,22.4,30.46,SW,215,2.1,4.6,82,0.00,,SKC,0.00,VWS V14.00,2013-03-09 13:37:00,
2013-03-09 08:42:00,27.6,22.8,30.46,SW,218,0.0,5.0,82,0.00,,SKC,0.00,VWS V14.00,2013-03-09 13:42:00,
2013-03-09 08:47:00,28.2,22.8,30.46,SSE,163,1.0,5.5,80,0.00,,SKC,0.00,VWS V14.00,2013-03-09 13:47:00,
2013-03-09 08:52:00,28.9,23.2,30.46,SSW,193,0.0,5.5,79,0.00,,SKC,0.00,VWS V14.00,2013-03-09 13:52:00,
2013-03-09 08:57:00,29.3,23.3,30.46,East,101,0.0,0.0,78,0.00,,SKC,0.00,VWS V14.00,2013-03-09 13:57:00,
2013-03-09 09:00:00,29.3,23.5,30.47,East,101,0.0,5.5,79,0.00,,SKC,0.00,VWS V14.00,2013-03-09 14:00:00,
2013-03-09 09:02:00,29.8,23.5,30.46,East,101,0.0,0.0,77,0.00,,SKC,0.00,VWS V14.00,2013-03-09 14:02:00,
2013-03-09 09:07:00,30.0,23.5,30.47,East,101,0.0,0.0,76,0.00,,SKC,0.00,VWS V14.00,2013-03-09 14:07:00,
2013-03-09 09:12:00,30.4,23.6,30.47,East,101,0.0,0.0,76,0.00,,SKC,0.00,VWS V14.00,2013-03-09 14:12:00,
2013-03-09 09:17:00,30.7,23.5,30.47,East,101,0.0,0.0,74,0.00,,SKC,0.00,VWS V14.00,2013-03-09 14:17:00,
2013-03-09 09:22:00,30.9,23.2,30.47,SW,225,0.0,3.3,73,0.00,,SKC,0.00,VWS V14.00,2013-03-09 14:22:00,
2013-03-09 09:27:00,30.9,22.6,30.47,SW,226,3.2,3.4,71,0.00,,SKC,0.00,VWS V14.00,2013-03-09 14:27:00,
2013-03-09 09:30:00,30.8,22.6,30.47,SW,225,2.9,3.5,71,0.00,,SKC,0.00,VWS V14.00,2013-03-09 14:30:00,
2013-03-09 09:32:00,31.0,22.6,30.47,SW,224,1.4,4.3,71,0.00,,SKC,0.00,VWS V14.00,2013-03-09 14:32:00,
2013-03-09 09:37:00,31.4,23.1,30.47,SSW,193,0.0,4.3,71,0.00,,SKC,0.00,VWS V14.00,2013-03-09 14:37:00,
2013-03-09 09:42:00,31.6,22.8,30.47,SSW,193,0.0,4.3,70,0.00,,SKC,0.00,VWS V14.00,2013-03-09 14:42:00,
2013-03-09 09:47:00,32.1,23.3,30.47,SW,215,0.0,4.3,70,0.00,,SKC,0.00,VWS V14.00,2013-03-09 14:47:00,
2013-03-09 09:52:00,32.9,24.2,30.46,SW,215,0.0,4.3,70,0.00,,SKC,0.00,VWS V14.00,2013-03-09 14:52:00,
2013-03-09 09:57:00,33.7,24.1,30.46,SW,215,0.0,0.0,68,0.00,,SKC,0.00,VWS V14.00,2013-03-09 14:57:00,
2013-03-09 10:00:00,33.6,24.2,30.47,SW,215,0.0,4.3,68,0.00,,SKC,0.00,VWS V14.00,2013-03-09 15:00:00,
2013-03-09 10:02:00,34.0,24.0,30.46,SW,232,0.0,2.5,66,0.00,,SKC,0.00,VWS V14.00,2013-03-09 15:02:00,
2013-03-09 10:07:00,34.2,24.1,30.46,South,190,0.0,3.1,66,0.00,,SKC,0.00,VWS V14.00,2013-03-09 15:07:00,
2013-03-09 10:12:00,34.2,23.7,30.46,South,190,0.0,3.1,65,0.00,,SKC,0.00,VWS V14.00,2013-03-09 15:12:00,
2013-03-09 10:17:00,34.3,23.5,30.46,West,270,2.7,3.8,64,0.00,,SKC,0.00,VWS V14.00,2013-03-09 15:17:00,
2013-03-09 10:22:00,34.8,24.1,30.46,SW,214,0.0,3.8,64,0.00,,SKC,0.00,VWS V14.00,2013-03-09 15:22:00,
2013-03-09 10:27:00,35.2,24.3,30.46,SSW,193,0.0,0.0,64,0.00,,SKC,0.00,VWS V14.00,2013-03-09 15:27:00,
2013-03-09 10:30:00,35.1,24.2,30.46,SSW,193,0.0,3.8,64,0.00,,SKC,0.00,VWS V14.00,2013-03-09 15:30:00,
2013-03-09 10:32:00,35.7,24.5,30.46,SSW,193,0.0,0.0,63,0.00,,SKC,0.00,VWS V14.00,2013-03-09 15:32:00,
2013-03-09 10:37:00,36.1,24.4,30.46,South,170,0.0,2.2,62,0.00,,SKC,0.00,VWS V14.00,2013-03-09 15:37:00,
2013-03-09 10:42:00,36.6,24.3,30.46,South,170,0.0,2.2,61,0.00,,SKC,0.00,VWS V14.00,2013-03-09 15:42:00,
2013-03-09 10:47:00,37.0,24.6,30.46,South,170,0.0,2.2,60,0.00,,SKC,0.00,VWS V14.00,2013-03-09 15:47:00,
2013-03-09 10:52:00,37.3,24.7,30.45,SSE,149,2.4,3.8,60,0.00,,SKC,0.00,VWS V14.00,2013-03-09 15:52:00,
2013-03-09 10:57:00,37.9,25.2,30.45,South,181,1.9,3.2,60,0.00,,SKC,0.00,VWS V14.00,2013-03-09 15:57:00,
2013-03-09 11:00:00,37.7,25.0,30.45,SSE,155,1.1,3.8,60,0.00,,SKC,0.00,VWS V14.00,2013-03-09 16:00:00,
2013-03-09 11:02:00,37.8,24.5,30.45,SSW,198,0.0,4.3,58,0.00,,SKC,0.00,VWS V14.00,2013-03-09 16:02:00,
2013-03-09 11:07:00,37.7,24.5,30.45,SSW,200,0.0,4.8,59,0.00,,SKC,0.00,VWS V14.00,2013-03-09 16:07:00,
2013-03-09 11:12:00,37.9,24.5,30.44,NW,316,0.0,4.8,58,0.00,,SKC,0.00,VWS V14.00,2013-03-09 16:12:00,
2013-03-09 11:17:00,38.2,24.9,30.44,SE,131,1.9,4.8,58,0.00,,SKC,0.00,VWS V14.00,2013-03-09 16:17:00,
2013-03-09 11:22:00,38.6,24.9,30.44,SW,233,0.0,5.4,58,0.00,,SKC,0.00,VWS V14.00,2013-03-09 16:22:00,
2013-03-09 11:27:00,39.0,24.7,30.44,SSW,205,0.0,0.0,56,0.00,,SKC,0.00,VWS V14.00,2013-03-09 16:27:00,
2013-03-09 11:30:00,38.9,24.9,30.44,SSW,205,0.0,5.4,57,0.00,,SKC,0.00,VWS V14.00,2013-03-09 16:30:00,
2013-03-09 11:32:00,39.0,24.4,30.44,West,270,5.9,6.1,56,0.00,,SKC,0.00,VWS V14.00,2013-03-09 16:32:00,
2013-03-09 11:37:00,39.0,24.6,30.44,West,269,5.7,6.5,56,0.00,,SKC,0.00,VWS V14.00,2013-03-09 16:37:00,
2013-03-09 11:42:00,39.2,23.2,30.44,WNW,291,6.4,7.0,52,0.00,,SKC,0.00,VWS V14.00,2013-03-09 16:42:00,
2013-03-09 11:47:00,39.2,24.5,30.43,West,274,2.4,7.3,55,0.00,,SKC,0.00,VWS V14.00,2013-03-09 16:47:00,
2013-03-09 11:52:00,39.5,24.7,30.44,SW,233,3.9,7.3,55,0.00,,SKC,0.00,VWS V14.00,2013-03-09 16:52:00,
2013-03-09 11:57:00,39.8,24.1,30.44,NW,314,5.5,7.6,53,0.00,,SKC,0.00,VWS V14.00,2013-03-09 16:57:00,
2013-03-09 12:00:00,39.7,24.8,30.43,West,269,4.3,7.3,55,0.00,,SKC,0.00,VWS V14.00,2013-03-09 17:00:00,
2013-03-09 12:02:00,40.1,24.3,30.43,West,278,4.6,8.1,53,0.00,,SKC,0.00,VWS V14.00,2013-03-09 17:02:00,
2013-03-09 12:07:00,40.4,24.8,30.43,WSW,242,3.2,8.1,53,0.00,,SKC,0.00,VWS V14.00,2013-03-09 17:07:00,
2013-03-09 12:12:00,40.7,24.3,30.43,WSW,242,2.0,8.6,52,0.00,,SKC,0.00,VWS V14.00,2013-03-09 17:12:00,
2013-03-09 12:17:00,40.9,24.4,30.43,West,260,4.8,8.6,51,0.00,,SKC,0.00,VWS V14.00,2013-03-09 17:17:00,
2013-03-09 12:22:00,40.9,24.2,30.43,West,263,7.8,10.2,51,0.00,,SKC,0.00,VWS V14.00,2013-03-09 17:22:00,
2013-03-09 12:27:00,41.1,23.6,30.42,WNW,301,4.2,7.6,50,0.00,,SKC,0.00,VWS V14.00,2013-03-09 17:27:00,
2013-03-09 12:30:00,40.9,24.1,30.43,West,260,4.8,10.2,51,0.00,,SKC,0.00,VWS V14.00,2013-03-09 17:30:00,
2013-03-09 12:32:00,41.4,24.7,30.42,NNW,347,1.2,7.6,51,0.00,,SKC,0.00,VWS V14.00,2013-03-09 17:32:00,
2013-03-09 12:37:00,41.9,24.2,30.42,WNW,302,3.7,7.9,49,0.00,,SKC,0.00,VWS V14.00,2013-03-09 17:37:00,
2013-03-09 12:42:00,42.0,24.3,30.42,WNW,295,1.9,7.9,49,0.00,,SKC,0.00,VWS V14.00,2013-03-09 17:42:00,
2013-03-09 12:47:00,42.5,24.2,30.42,West,270,2.7,7.9,48,0.00,,SKC,0.00,VWS V14.00,2013-03-09 17:47:00,
2013-03-09 12:53:00,42.5,24.5,30.42,WSW,252,4.2,7.9,48,0.00,,SKC,0.00,VWS V14.00,2013-03-09 17:53:00,
2013-03-09 12:58:00,42.4,24.8,30.42,NNE,31,6.1,6.8,49,0.00,,SKC,0.00,VWS V14.00,2013-03-09 17:58:00,
2013-03-09 13:00:00,42.5,24.7,30.42,NE,35,3.5,7.9,49,0.00,,SKC,0.00,VWS V14.00,2013-03-09 18:00:00,
2013-03-09 13:03:00,42.5,24.0,30.42,WNW,301,4.2,6.8,48,0.00,,SKC,0.00,VWS V14.00,2013-03-09 18:03:00,
2013-03-09 13:08:00,43.3,25.3,30.42,NNE,28,4.7,6.8,49,0.00,,SKC,0.00,VWS V14.00,2013-03-09 18:08:00,
2013-03-09 13:13:00,43.1,24.9,30.42,NNE,20,3.9,7.5,48,0.00,,SKC,0.00,VWS V14.00,2013-03-09 18:13:00,
2013-03-09 13:18:00,43.3,24.4,30.42,NNW,343,1.5,7.5,47,0.00,,SKC,0.00,VWS V14.00,2013-03-09 18:18:00,
2013-03-09 13:23:00,43.2,24.2,30.41,NNE,32,3.4,7.5,47,0.00,,SKC,0.00,VWS V14.00,2013-03-09 18:23:00,
2013-03-09 13:28:00,43.3,24.9,30.42,North,6,5.3,5.3,48,0.00,,SKC,0.00,VWS V14.00,2013-03-09 18:28:00,
2013-03-09 13:30:00,43.3,24.7,30.42,NNW,330,1.1,7.5,48,0.00,,SKC,0.00,VWS V14.00,2013-03-09 18:30:00,
2013-03-09 13:33:00,43.2,24.2,30.41,NNE,30,5.5,8.9,47,0.00,,SKC,0.00,VWS V14.00,2013-03-09 18:33:00,
2013-03-09 13:38:00,42.8,23.8,30.41,North,6,3.8,8.9,47,0.00,,SKC,0.00,VWS V14.00,2013-03-09 18:38:00,
2013-03-09 13:43:00,42.7,23.8,30.41,NNE,28,5.8,8.9,47,0.00,,SKC,0.00,VWS V14.00,2013-03-09 18:43:00,
2013-03-09 13:48:00,42.7,23.9,30.41,NNE,25,6.5,8.9,47,0.00,,SKC,0.00,VWS V14.00,2013-03-09 18:48:00,
2013-03-09 13:53:00,42.7,23.3,30.41,NE,56,3.2,8.9,46,0.00,,SKC,0.00,VWS V14.00,2013-03-09 18:53:00,
2013-03-09 13:58:00,43.1,24.3,30.41,NNE,22,6.2,6.2,47,0.00,,SKC,0.00,VWS V14.00,2013-03-09 18:58:00,
2013-03-09 14:00:00,43.1,23.7,30.41,East,86,4.6,8.9,46,0.00,,SKC,0.00,VWS V14.00,2013-03-09 19:00:00,
2013-03-09 14:03:00,43.1,23.3,30.41,NE,55,2.4,6.5,45,0.00,,SKC,0.00,VWS V14.00,2013-03-09 19:03:00,
2013-03-09 14:08:00,43.3,24.7,30.41,NE,53,4.2,6.5,48,0.00,,SKC,0.00,VWS V14.00,2013-03-09 19:08:00,
2013-03-09 14:13:00,43.7,24.3,30.41,ENE,60,2.7,6.5,46,0.00,,SKC,0.00,VWS V14.00,2013-03-09 19:13:00,
2013-03-09 14:18:00,43.7,24.2,30.41,NE,44,2.9,6.5,46,0.00,,SKC,0.00,VWS V14.00,2013-03-09 19:18:00,
2013-03-09 14:23:00,43.5,25.2,30.41,NNE,32,0.3,6.5,48,0.00,,SKC,0.00,VWS V14.00,2013-03-09 19:23:00,
2013-03-09 14:28:00,43.6,23.2,30.41,NE,42,4.3,7.0,44,0.00,,SKC,0.00,VWS V14.00,2013-03-09 19:28:00,
2013-03-09 14:30:00,43.7,23.7,30.41,NNE,18,3.6,6.6,45,0.00,,SKC,0.00,VWS V14.00,2013-03-09 19:30:00,
2013-03-09 14:33:00,43.5,24.4,30.41,NE,38,6.3,7.8,46,0.00,,SKC,0.00,VWS V14.00,2013-03-09 19:33:00,
2013-03-09 14:38:00,43.6,23.6,30.40,East,82,3.0,7.8,45,0.00,,SKC,0.00,VWS V14.00,2013-03-09 19:38:00,
2013-03-09 14:43:00,43.8,24.0,30.40,NE,41,5.1,7.8,45,0.00,,SKC,0.00,VWS V14.00,2013-03-09 19:43:00,
2013-03-09 14:48:00,43.9,23.6,30.40,ENE,59,3.5,7.8,44,0.00,,SKC,0.00,VWS V14.00,2013-03-09 19:48:00,
2013-03-09 14:53:00,43.7,24.4,30.40,NE,34,3.8,7.8,46,0.00,,SKC,0.00,VWS V14.00,2013-03-09 19:53:00,
2013-03-09 14:58:00,43.8,25.0,30.40,NE,39,0.0,4.6,47,0.00,,SKC,0.00,VWS V14.00,2013-03-09 19:58:00,
2013-03-09 15:00:00,43.9,25.1,30.40,NNE,21,4.6,7.8,47,0.00,,SKC,0.00,VWS V14.00,2013-03-09 20:00:00,
2013-03-09 15:03:00,44.1,23.0,30.40,NE,45,1.4,5.8,43,0.00,,SKC,0.00,VWS V14.00,2013-03-09 20:03:00,
2013-03-09 15:08:00,44.6,24.2,30.40,NNE,31,0.0,5.8,44,0.00,,SKC,0.00,VWS V14.00,2013-03-09 20:08:00,
2013-03-09 15:13:00,45.0,24.0,30.40,NNE,31,0.0,5.8,43,0.00,,SKC,0.00,VWS V14.00,2013-03-09 20:13:00,
2013-03-09 15:18:00,44.9,24.0,30.40,NNE,31,2.4,5.8,43,0.00,,SKC,0.00,VWS V14.00,2013-03-09 20:18:00,
2013-03-09 15:23:00,44.7,23.9,30.40,NE,48,2.4,5.8,44,0.00,,SKC,0.00,VWS V14.00,2013-03-09 20:23:00,
2013-03-09 15:28:00,44.8,23.7,30.40,NE,42,2.5,3.8,43,0.00,,SKC,0.00,VWS V14.00,2013-03-09 20:28:00,
2013-03-09 15:30:00,44.8,24.6,30.40,ENE,70,1.1,5.8,45,0.00,,SKC,0.00,VWS V14.00,2013-03-09 20:30:00,
2013-03-09 15:33:00,44.6,23.3,30.40,NE,46,3.2,5.2,43,0.00,,SKC,0.00,VWS V14.00,2013-03-09 20:33:00,
2013-03-09 15:38:00,44.2,23.8,30.40,NNE,32,3.4,6.4,44,0.00,,SKC,0.00,VWS V14.00,2013-03-09 20:38:00,
2013-03-09 15:43:00,44.6,24.0,30.40,NNE,14,0.0,6.4,44,0.00,,SKC,0.00,VWS V14.00,2013-03-09 20:43:00,
2013-03-09 15:48:00,44.4,23.2,30.40,NE,34,2.7,6.4,43,0.00,,SKC,0.00,VWS V14.00,2013-03-09 20:48:00,
2013-03-09 15:53:00,44.5,24.0,30.39,NE,48,1.9,6.4,44,0.00,,SKC,0.00,VWS V14.00,2013-03-09 20:53:00,
2013-03-09 15:58:00,44.7,23.6,30.39,NW,315,0.0,1.6,43,0.00,,SKC,0.00,VWS V14.00,2013-03-09 20:58:00,
2013-03-09 16:00:00,44.6,23.3,30.39,North,354,1.6,6.4,43,0.00,,SKC,0.00,VWS V14.00,2013-03-09 21:00:00,
2013-03-09 16:03:00,44.9,23.2,30.39,North,8,0.0,1.6,42,0.00,,SKC,0.00,VWS V14.00,2013-03-09 21:03:00,
2013-03-09 16:08:00,44.6,23.4,30.39,ENE,70,0.0,4.8,43,0.00,,SKC,0.00,VWS V14.00,2013-03-09 21:08:00,
2013-03-09 16:13:00,44.3,22.9,30.39,NNE,22,1.7,4.8,42,0.00,,SKC,0.00,VWS V14.00,2013-03-09 21:13:00,
2013-03-09 16:18:00,44.3,23.4,30.39,NNE,28,0.0,5.0,43,0.00,,SKC,0.00,VWS V14.00,2013-03-09 21:18:00,
2013-03-09 16:23:00,44.7,23.9,30.40,NNE,28,0.0,5.0,44,0.00,,SKC,0.00,VWS V14.00,2013-03-09 21:23:00,
2013-03-09 16:28:00,44.8,23.7,30.39,NNE,28,0.0,0.0,43,0.00,,SKC,0.00,VWS V14.00,2013-03-09 21:28:00,
2013-03-09 16:30:00,44.8,23.9,30.39,NNE,28,0.0,5.0,43,0.00,,SKC,0.00,VWS V14.00,2013-03-09 21:30:00,
2013-03-09 16:33:00,44.9,23.4,30.39,North,6,1.2,2.9,42,0.00,,SKC,0.00,VWS V14.00,2013-03-09 21:33:00,
2013-03-09 16:38:00,44.8,22.9,30.39,NE,38,1.1,2.9,42,0.00,,SKC,0.00,VWS V14.00,2013-03-09 21:38:00,
2013-03-09 16:43:00,44.6,22.8,30.39,NE,38,0.0,2.9,42,0.00,,SKC,0.00,VWS V14.00,2013-03-09 21:43:00,
2013-03-09 16:48:00,44.1,22.5,30.39,NE,38,0.0,2.9,42,0.00,,SKC,0.00,VWS V14.00,2013-03-09 21:48:00,
2013-03-09 16:53:00,44.1,22.5,30.39,NE,38,0.0,2.9,42,0.00,,SKC,0.00,VWS V14.00,2013-03-09 21:53:00,
2013-03-09 16:58:00,43.9,22.3,30.39,NE,38,0.0,0.0,42,0.00,,SKC,0.00,VWS V14.00,2013-03-09 21:58:00,
2013-03-09 17:00:00,44.2,22.7,30.39,NE,38,0.0,2.9,42,0.00,,SKC,0.00,VWS V14.00,2013-03-09 22:00:00,
2013-03-09 17:03:00,44.0,22.7,30.39,NE,38,0.0,0.0,43,0.00,,SKC,0.00,VWS V14.00,2013-03-09 22:03:00,
2013-03-09 17:08:00,44.1,22.9,30.39,NE,38,0.0,0.0,43,0.00,,SKC,0.00,VWS V14.00,2013-03-09 22:08:00,
2013-03-09 17:13:00,43.9,22.9,30.39,NE,38,0.0,0.0,43,0.00,,SKC,0.00,VWS V14.00,2013-03-09 22:13:00,
2013-03-09 17:18:00,43.8,22.7,30.39,NE,38,0.0,0.0,43,0.00,,SKC,0.00,VWS V14.00,2013-03-09 22:18:00,
2013-03-09 17:23:00,43.9,23.0,30.39,NE,38,0.0,0.0,43,0.00,,SKC,0.00,VWS V14.00,2013-03-09 22:23:00,
2013-03-09 17:28:00,43.8,23.1,30.39,NE,38,0.0,0.0,44,0.00,,SKC,0.00,VWS V14.00,2013-03-09 22:28:00,
2013-03-09 17:30:00,43.9,23.0,30.39,NE,38,0.0,0.0,43,0.00,,SKC,0.00,VWS V14.00,2013-03-09 22:30:00,
2013-03-09 17:33:00,43.5,22.9,30.39,NE,38,0.0,0.0,44,0.00,,SKC,0.00,VWS V14.00,2013-03-09 22:33:00,
2013-03-09 17:38:00,43.3,22.6,30.39,NE,38,0.0,0.0,44,0.00,,SKC,0.00,VWS V14.00,2013-03-09 22:38:00,
2013-03-09 17:43:00,43.0,22.7,30.39,NE,38,0.0,0.0,44,0.00,,SKC,0.00,VWS V14.00,2013-03-09 22:43:00,
2013-03-09 17:48:00,42.6,22.5,30.39,NE,38,0.0,0.0,44,0.00,,SKC,0.00,VWS V14.00,2013-03-09 22:48:00,
2013-03-09 17:53:00,41.9,22.8,30.39,NE,38,0.0,0.0,46,0.00,,SKC,0.00,VWS V14.00,2013-03-09 22:53:00,
2013-03-09 17:58:00,41.3,23.2,30.39,NE,38,0.0,0.0,48,0.00,,SKC,0.00,VWS V14.00,2013-03-09 22:58:00,
2013-03-09 18:00:00,41.7,22.8,30.39,NE,38,0.0,0.0,47,0.00,,SKC,0.00,VWS V14.00,2013-03-09 23:00:00,
2013-03-09 18:03:00,40.6,22.7,30.39,NE,38,0.0,0.0,48,0.00,,SKC,0.00,VWS V14.00,2013-03-09 23:03:00,
2013-03-09 18:08:00,40.1,22.5,30.39,NE,38,0.0,0.0,49,0.00,,SKC,0.00,VWS V14.00,2013-03-09 23:08:00,
2013-03-09 18:13:00,39.7,22.8,30.39,NE,38,0.0,0.0,50,0.00,,SKC,0.00,VWS V14.00,2013-03-09 23:13:00,
2013-03-09 18:18:00,39.4,22.4,30.39,NE,38,0.0,0.0,50,0.00,,SKC,0.00,VWS V14.00,2013-03-09 23:18:00,
2013-03-09 18:24:00,38.7,22.0,30.39,NE,38,0.0,0.0,51,0.00,,SKC,0.00,VWS V14.00,2013-03-09 23:24:00,
2013-03-09 18:29:00,38.4,21.9,30.39,NE,38,0.0,0.0,51,0.00,,SKC,0.00,VWS V14.00,2013-03-09 23:29:00,
2013-03-09 18:30:00,38.5,21.9,30.39,NE,38,0.0,0.0,51,0.00,,SKC,0.00,VWS V14.00,2013-03-09 23:30:00,
2013-03-09 18:34:00,37.8,21.7,30.39,NE,38,0.0,0.0,52,0.00,,SKC,0.00,VWS V14.00,2013-03-09 23:34:00,
2013-03-09 18:39:00,37.6,22.0,30.39,NE,38,0.0,0.0,53,0.00,,SKC,0.00,VWS V14.00,2013-03-09 23:39:00,
2013-03-09 18:44:00,37.4,22.5,30.39,NE,38,0.0,0.0,54,0.00,,SKC,0.00,VWS V14.00,2013-03-09 23:44:00,
2013-03-09 18:49:00,37.1,22.0,30.39,NE,38,0.0,0.0,54,0.00,,SKC,0.00,VWS V14.00,2013-03-09 23:49:00,
2013-03-09 18:54:00,36.8,22.0,30.39,NE,38,0.0,0.0,55,0.00,,SKC,0.00,VWS V14.00,2013-03-09 23:54:00,
2013-03-09 18:59:00,36.2,22.0,30.39,NE,38,0.0,0.0,56,0.00,,SKC,0.00,VWS V14.00,2013-03-09 23:59:00,
2013-03-09 19:00:00,36.5,21.8,30.39,NE,38,0.0,0.0,55,0.00,,SKC,0.00,VWS V14.00,2013-03-10 00:00:00,
2013-03-09 19:04:00,35.7,22.1,30.39,NE,38,0.0,0.0,57,0.00,,SKC,0.00,VWS V14.00,2013-03-10 00:04:00,
2013-03-09 19:09:00,35.4,22.3,30.39,NE,38,0.0,0.0,58,0.00,,SKC,0.00,VWS V14.00,2013-03-10 00:09:00,
2013-03-09 19:14:00,35.1,21.8,30.39,NE,38,0.0,0.0,58,0.00,,SKC,0.00,VWS V14.00,2013-03-10 00:14:00,
2013-03-09 19:19:00,34.6,21.5,30.39,NE,38,0.0,0.0,58,0.00,,SKC,0.00,VWS V14.00,2013-03-10 00:19:00,
2013-03-09 19:24:00,34.1,21.3,30.39,NE,38,0.0,0.0,59,0.00,,SKC,0.00,VWS V14.00,2013-03-10 00:24:00,
2013-03-09 19:29:00,33.9,21.9,30.39,NE,38,0.0,0.0,61,0.00,,SKC,0.00,VWS V14.00,2013-03-10 00:29:00,
2013-03-09 19:30:00,33.9,22.0,30.39,NE,38,0.0,0.0,61,0.00,,SKC,0.00,VWS V14.00,2013-03-10 00:30:00,
2013-03-09 19:34:00,33.6,21.5,30.39,NE,38,0.0,0.0,61,0.00,,SKC,0.00,VWS V14.00,2013-03-10 00:34:00,
2013-03-09 19:39:00,33.4,21.9,30.39,NE,38,0.0,0.0,62,0.00,,SKC,0.00,VWS V14.00,2013-03-10 00:39:00,
2013-03-09 19:44:00,33.0,22.1,30.39,NE,38,0.0,0.0,64,0.00,,SKC,0.00,VWS V14.00,2013-03-10 00:44:00,
2013-03-09 19:49:00,32.7,22.4,30.39,NE,38,0.0,0.0,65,0.00,,SKC,0.00,VWS V14.00,2013-03-10 00:49:00,
2013-03-09 19:54:00,32.4,22.1,30.39,NE,38,0.0,0.0,65,0.00,,SKC,0.00,VWS V14.00,2013-03-10 00:54:00,
2013-03-09 19:59:00,32.0,21.9,30.39,NE,38,0.0,0.0,66,0.00,,SKC,0.00,VWS V14.00,2013-03-10 00:59:00,
2013-03-09 20:00:00,32.1,22.0,30.39,NE,38,0.0,0.0,66,0.00,,SKC,0.00,VWS V14.00,2013-03-10 01:00:00,
2013-03-09 20:04:00,31.5,22.5,30.39,NE,38,0.0,0.0,69,0.00,,SKC,0.00,VWS V14.00,2013-03-10 01:04:00,
2013-03-09 20:09:00,31.4,22.3,30.39,NE,38,0.0,0.0,69,0.00,,SKC,0.00,VWS V14.00,2013-03-10 01:09:00,
2013-03-09 20:14:00,31.3,22.1,30.39,NE,38,0.0,0.0,68,0.00,,SKC,0.00,VWS V14.00,2013-03-10 01:14:00,
2013-03-09 20:19:00,31.2,22.0,30.39,NE,38,0.0,0.0,68,0.00,,SKC,0.00,VWS V14.00,2013-03-10 01:19:00,
2013-03-09 20:24:00,31.1,22.2,30.39,NE,38,0.0,0.0,69,0.00,,SKC,0.00,VWS V14.00,2013-03-10 01:24:00,
2013-03-09 20:29:00,30.8,22.0,30.39,NE,38,0.0,0.0,69,0.00,,SKC,0.00,VWS V14.00,2013-03-10 01:29:00,
2013-03-09 20:30:00,31.0,22.2,30.39,NE,38,0.0,0.0,69,0.00,,SKC,0.00,VWS V14.00,2013-03-10 01:30:00,
2013-03-09 20:34:00,30.7,21.9,30.38,NE,38,0.0,0.0,69,0.00,,SKC,0.00,VWS V14.00,2013-03-10 01:34:00,
2013-03-09 20:39:00,30.7,21.7,30.39,NE,38,0.0,0.0,69,0.00,,SKC,0.00,VWS V14.00,2013-03-10 01:39:00,
2013-03-09 20:44:00,30.6,21.7,30.38,NE,38,0.0,0.0,69,0.00,,SKC,0.00,VWS V14.00,2013-03-10 01:44:00,
2013-03-09 20:49:00,30.3,22.1,30.38,NE,38,0.0,0.0,71,0.00,,SKC,0.00,VWS V14.00,2013-03-10 01:49:00,
2013-03-09 20:54:00,30.0,21.7,30.38,NE,38,0.0,0.0,71,0.00,,SKC,0.00,VWS V14.00,2013-03-10 01:54:00,
2013-03-09 20:59:00,30.0,21.9,30.39,NE,38,0.0,0.0,71,0.00,,SKC,0.00,VWS V14.00,2013-03-10 01:59:00,
2013-03-09 21:00:00,30.1,21.8,30.38,NE,38,0.0,0.0,71,0.00,,SKC,0.00,VWS V14.00,2013-03-10 02:00:00,
2013-03-09 21:04:00,30.0,21.8,30.39,NE,38,0.0,0.0,71,0.00,,SKC,0.00,VWS V14.00,2013-03-10 02:04:00,
2013-03-09 21:09:00,29.8,21.4,30.39,NE,38,0.0,0.0,71,0.00,,SKC,0.00,VWS V14.00,2013-03-10 02:09:00,
2013-03-09 21:14:00,29.9,21.7,30.39,NE,38,0.0,0.0,71,0.00,,SKC,0.00,VWS V14.00,2013-03-10 02:14:00,
2013-03-09 21:19:00,29.8,21.6,30.39,NE,38,0.0,0.0,71,0.00,,SKC,0.00,VWS V14.00,2013-03-10 02:19:00,
2013-03-09 21:24:00,29.6,21.6,30.39,NE,38,0.0,0.0,72,0.00,,SKC,0.00,VWS V14.00,2013-03-10 02:24:00,
2013-03-09 21:29:00,29.4,21.6,30.39,NE,38,0.0,0.0,72,0.00,,SKC,0.00,VWS V14.00,2013-03-10 02:29:00,
2013-03-09 21:30:00,29.5,21.6,30.39,NE,38,0.0,0.0,72,0.00,,SKC,0.00,VWS V14.00,2013-03-10 02:30:00,
2013-03-09 21:34:00,29.1,21.6,30.38,NE,38,0.0,0.0,73,0.00,,SKC,0.00,VWS V14.00,2013-03-10 02:34:00,
2013-03-09 21:39:00,28.9,21.6,30.39,NE,38,0.0,0.0,74,0.00,,SKC,0.00,VWS V14.00,2013-03-10 02:39:00,
2013-03-09 21:52:00,28.9,21.8,30.38,NE,38,0.0,0.0,74,0.00,,SKC,0.00,VWS V14.00,2013-03-10 02:52:00,
2013-03-09 21:57:00,28.8,21.7,30.38,NE,38,0.0,0.0,74,0.00,,SKC,0.00,VWS V14.00,2013-03-10 02:57:00,
2013-03-09 22:00:00,28.9,21.7,30.38,NE,38,0.0,0.0,74,0.00,,SCT,0.00,VWS V14.00,2013-03-10 03:00:00,
2013-03-09 22:02:00,28.6,21.9,30.38,NE,38,0.0,0.0,76,0.00,,SKC,0.00,VWS V14.00,2013-03-10 03:02:00,
2013-03-09 22:07:00,28.3,22.1,30.38,NE,38,0.0,0.0,77,0.00,,SKC,0.00,VWS V14.00,2013-03-10 03:07:00,
2013-03-09 22:12:00,27.9,21.9,30.38,NE,38,0.0,0.0,78,0.00,,SKC,0.00,VWS V14.00,2013-03-10 03:12:00,
2013-03-09 22:17:00,27.6,21.7,30.38,NE,38,0.0,0.0,78,0.00,,SKC,0.00,VWS V14.00,2013-03-10 03:17:00,
2013-03-09 22:22:00,27.3,21.7,30.38,NE,38,0.0,0.0,79,0.00,,SKC,0.00,VWS V14.00,2013-03-10 03:22:00,
2013-03-09 22:27:00,27.3,21.9,30.37,NE,38,0.0,0.0,80,0.00,,SKC,0.00,VWS V14.00,2013-03-10 03:27:00,
2013-03-09 22:30:00,27.2,21.7,30.37,NE,38,0.0,0.0,79,0.00,,SCT,0.00,VWS V14.00,2013-03-10 03:30:00,
2013-03-09 22:32:00,26.9,21.9,30.37,NE,38,0.0,0.0,81,0.00,,SKC,0.00,VWS V14.00,2013-03-10 03:32:00,
2013-03-09 22:37:00,26.8,22.0,30.37,NE,38,0.0,0.0,82,0.00,,SKC,0.00,VWS V14.00,2013-03-10 03:37:00,
2013-03-09 22:42:00,26.8,22.3,30.37,NE,38,0.0,0.0,83,0.00,,SKC,0.00,VWS V14.00,2013-03-10 03:42:00,
2013-03-09 22:47:00,27.2,22.4,30.37,NE,38,0.0,0.0,82,0.00,,SKC,0.00,VWS V14.00,2013-03-10 03:47:00,
2013-03-09 22:52:00,27.6,22.4,30.38,NE,38,0.0,0.0,80,0.00,,SKC,0.00,VWS V14.00,2013-03-10 03:52:00,
2013-03-09 22:57:00,27.9,22.4,30.37,NE,38,0.0,0.0,80,0.00,,SKC,0.00,VWS V14.00,2013-03-10 03:57:00,
2013-03-09 23:00:00,27.9,22.5,30.37,NE,38,0.0,0.0,80,0.00,,SCT,0.00,VWS V14.00,2013-03-10 04:00:00,
2013-03-09 23:02:00,28.2,22.6,30.37,NE,38,0.0,0.0,79,0.00,,SKC,0.00,VWS V14.00,2013-03-10 04:02:00,
2013-03-09 23:07:00,28.3,22.5,30.37,NE,38,0.0,0.0,79,0.00,,SKC,0.00,VWS V14.00,2013-03-10 04:07:00,
2013-03-09 23:12:00,28.5,22.8,30.37,NE,38,0.0,0.0,79,0.00,,SKC,0.00,VWS V14.00,2013-03-10 04:12:00,
2013-03-09 23:17:00,28.6,23.0,30.36,NE,38,0.0,0.0,79,0.00,,SKC,0.00,VWS V14.00,2013-03-10 04:17:00,
2013-03-09 23:22:00,28.7,23.0,30.36,NE,38,0.0,0.0,79,0.00,,SKC,0.00,VWS V14.00,2013-03-10 04:22:00,
2013-03-09 23:27:00,28.6,23.0,30.36,NE,38,0.0,0.0,79,0.00,,SKC,0.00,VWS V14.00,2013-03-10 04:27:00,
2013-03-09 23:30:00,28.7,23.0,30.36,NE,38,0.0,0.0,79,0.00,,SCT,0.00,VWS V14.00,2013-03-10 04:30:00,
2013-03-09 23:32:00,28.5,22.9,30.36,NE,38,0.0,0.0,79,0.00,,SKC,0.00,VWS V14.00,2013-03-10 04:32:00,
2013-03-09 23:37:00,28.2,22.5,30.36,NE,38,0.0,0.0,79,0.00,,SKC,0.00,VWS V14.00,2013-03-10 04:37:00,
2013-03-09 23:42:00,27.8,22.2,30.36,NE,38,0.0,0.0,79,0.00,,SKC,0.00,VWS V14.00,2013-03-10 04:42:00,
2013-03-09 23:47:00,27.6,22.3,30.36,NE,38,0.0,0.0,80,0.00,,SKC,0.00,VWS V14.00,2013-03-10 04:47:00,
2013-03-09 23:52:00,27.5,22.5,30.36,NE,38,0.0,0.0,81,0.00,,SKC,0.00,VWS V14.00,2013-03-10 04:52:00,